createdAt,value
2022-11-18T00:00:32.798Z,-1.14
2022-11-18T00:05:39.470Z,-1.15
2022-11-18T00:10:45.135Z,-1.18
2022-11-18T00:15:59.552Z,-1.21
2022-11-18T00:21:07.868Z,-1.23
2022-11-18T00:26:14.695Z,-1.27
2022-11-18T00:31:20.287Z,-1.29
2022-11-18T00:36:26.045Z,-1.31
2022-11-18T00:41:50.798Z,-1.28
2022-11-18T00:46:56.805Z,-1.19
2022-11-18T00:52:02.784Z,-1.14
2022-11-18T00:57:08.739Z,-1.11
2022-11-18T01:02:14.486Z,-1.15
2022-11-18T01:07:20.221Z,-1.17
2022-11-18T01:12:46.297Z,-1.20
2022-11-18T01:17:53.635Z,-1.26
2022-11-18T01:22:59.431Z,-1.27
2022-11-18T01:28:05.198Z,-1.27
2022-11-18T01:33:12.115Z,-1.28
2022-11-18T01:38:17.692Z,-1.29
2022-11-18T01:43:24.346Z,-1.26
2022-11-18T01:48:34.330Z,-1.16
2022-11-18T01:53:45.443Z,-1.09
2022-11-18T01:58:55.602Z,-1.05
2022-11-18T02:04:01.490Z,-1.05
2022-11-18T02:09:07.577Z,-1.08
2022-11-18T02:14:13.606Z,-1.11
2022-11-18T02:19:38.742Z,-1.12
2022-11-18T02:24:56.487Z,-1.17
2022-11-18T02:30:05.905Z,-1.21
2022-11-18T02:35:18.781Z,-1.22
2022-11-18T02:40:29.309Z,-1.17
2022-11-18T02:45:37.314Z,-1.07
2022-11-18T02:50:44.972Z,-1.00
2022-11-18T02:55:53.238Z,-0.99
2022-11-18T03:01:01.489Z,-1.03
2022-11-18T03:06:19.917Z,-1.09
2022-11-18T03:11:28.383Z,-1.16
2022-11-18T03:16:38.317Z,-1.22
2022-11-18T03:21:51.643Z,-1.21
2022-11-18T03:27:04.899Z,-1.16
2022-11-18T03:32:17.782Z,-1.15
2022-11-18T03:37:26.302Z,-1.16
2022-11-18T03:42:36.367Z,-1.21
2022-11-18T03:47:45.482Z,-1.29
2022-11-18T03:52:53.397Z,-1.35
2022-11-18T03:58:06.036Z,-1.36
2022-11-18T04:03:13.070Z,-1.37
2022-11-18T04:08:27.485Z,-1.40
2022-11-18T04:13:36.716Z,-1.46
2022-11-18T04:18:42.707Z,-1.49
2022-11-18T04:23:48.501Z,-1.55
2022-11-18T04:28:54.403Z,-1.58
2022-11-18T04:34:00.354Z,-1.54
2022-11-18T04:39:07.272Z,-1.57
2022-11-18T04:44:13.551Z,-1.58
2022-11-18T04:49:19.665Z,-1.65
2022-11-18T04:54:26.911Z,-1.73
2022-11-18T04:59:32.727Z,-1.76
2022-11-18T05:04:38.514Z,-1.78
2022-11-18T05:09:44.415Z,-1.76
2022-11-18T05:14:51.120Z,-1.72
2022-11-18T05:19:56.998Z,-1.73
2022-11-18T05:25:02.694Z,-1.74
2022-11-18T05:30:10.319Z,-1.69
2022-11-18T05:35:16.282Z,-1.65
2022-11-18T05:40:22.023Z,-1.74
2022-11-18T05:45:27.640Z,-1.81
2022-11-18T05:50:35.278Z,-1.84
2022-11-18T05:55:44.416Z,-1.86
2022-11-18T06:00:53.739Z,-1.81
2022-11-18T06:06:03.363Z,-1.73
2022-11-18T06:11:14.822Z,-1.68
2022-11-18T06:16:23.709Z,-1.66
2022-11-18T06:21:29.978Z,-1.70
2022-11-18T06:26:36.035Z,-1.72
2022-11-18T06:31:41.978Z,-1.77
2022-11-18T06:36:47.771Z,-1.81
2022-11-18T06:41:55.211Z,-1.77
2022-11-18T06:47:02.526Z,-1.70
2022-11-18T06:52:08.326Z,-1.67
2022-11-18T06:57:14.234Z,-1.68
2022-11-18T07:02:19.921Z,-1.64
2022-11-18T07:07:25.781Z,-1.62
2022-11-18T07:12:31.799Z,-1.61
2022-11-18T07:17:37.643Z,-1.56
2022-11-18T07:22:43.354Z,-1.49
2022-11-18T07:27:48.955Z,-1.35
2022-11-18T07:32:54.779Z,-1.20
2022-11-18T07:38:00.540Z,-1.15
2022-11-18T07:43:07.278Z,-0.98
2022-11-18T07:48:13.582Z,-0.88
2022-11-18T07:53:19.254Z,-0.82
2022-11-18T07:58:25.186Z,-0.77
2022-11-18T08:03:30.783Z,-0.79
2022-11-18T08:08:37.130Z,-0.77
2022-11-18T08:13:42.920Z,-0.79
2022-11-18T08:18:48.946Z,-0.84
2022-11-18T08:23:56.397Z,-0.82
2022-11-18T08:29:02.226Z,-0.78
2022-11-18T08:34:08.935Z,-0.87
2022-11-18T08:39:15.197Z,-0.87
2022-11-18T08:44:20.975Z,-0.81
2022-11-18T08:49:32.189Z,-0.73
2022-11-18T08:54:38.523Z,-0.72
2022-11-18T08:59:44.423Z,-0.73
2022-11-18T09:04:50.884Z,-0.73
2022-11-18T09:09:56.533Z,-0.62
2022-11-18T09:15:18.380Z,-0.57
2022-11-18T09:20:24.653Z,-0.63
2022-11-18T09:25:30.302Z,-0.61
2022-11-18T09:30:36.095Z,-0.63
2022-11-18T09:35:45.184Z,-0.63
2022-11-18T09:41:04.551Z,-0.63
2022-11-18T09:46:21.991Z,-0.56
2022-11-18T09:51:35.188Z,-0.53
2022-11-18T09:56:41.785Z,-0.48
2022-11-18T10:01:48.899Z,-0.35
2022-11-18T10:06:55.194Z,-0.33
2022-11-18T10:12:16.570Z,-0.43
2022-11-18T10:17:33.196Z,-0.54
2022-11-18T10:22:44.426Z,-0.57
2022-11-18T10:27:51.682Z,-0.50
2022-11-18T10:32:59.890Z,-0.37
2022-11-18T10:38:16.784Z,-0.34
2022-11-18T10:43:45.327Z,-0.51
2022-11-18T10:49:14.210Z,-0.64
2022-11-18T10:54:22.622Z,-0.64
2022-11-18T10:59:33.701Z,-0.55
2022-11-18T11:04:40.883Z,-0.44
2022-11-18T11:09:58.767Z,-0.26
2022-11-18T11:15:09.189Z,-0.16
2022-11-18T11:20:19.260Z,-0.14
2022-11-18T11:31:13.154Z,-0.22
2022-11-18T11:37:32.494Z,-0.01
2022-11-18T11:42:50.663Z,0.18
2022-11-18T11:48:24.502Z,0.37
2022-11-18T11:53:54.873Z,0.48
2022-11-18T11:59:19.301Z,0.55
2022-11-18T12:04:39.736Z,0.59
2022-11-18T12:09:58.712Z,0.59
2022-11-18T12:15:16.824Z,0.54
2022-11-18T12:20:45.169Z,0.43
2022-11-18T12:26:04.198Z,0.34
2022-11-18T12:31:31.958Z,0.22
2022-11-18T12:36:39.515Z,0.05
2022-11-18T12:42:17.941Z,0.00
2022-11-18T12:47:54.669Z,0.02
2022-11-18T12:53:00.311Z,0.12
2022-11-18T12:58:24.212Z,0.16
2022-11-18T13:03:30.577Z,0.19
2022-11-18T13:08:37.037Z,0.15
2022-11-18T13:13:44.177Z,0.13
2022-11-18T13:18:52.080Z,0.13
2022-11-18T13:24:02.597Z,0.01
2022-11-18T13:29:27.067Z,-0.06
2022-11-18T13:34:47.095Z,-0.12
2022-11-18T13:39:53.593Z,-0.23
2022-11-18T13:45:00.628Z,-0.35
2022-11-18T13:50:16.859Z,-0.48
2022-11-18T13:55:25.159Z,-0.60
2022-11-18T14:00:34.657Z,-0.69
2022-11-18T14:05:41.653Z,-0.70
2022-11-18T14:10:47.522Z,-0.72
2022-11-18T14:15:54.614Z,-0.82
2022-11-18T14:21:01.684Z,-0.90
2022-11-18T14:26:08.167Z,-0.95
2022-11-18T14:31:26.144Z,-0.98
2022-11-18T14:36:32.151Z,-1.04
2022-11-18T14:41:47.226Z,-1.12
2022-11-18T14:46:57.216Z,-1.18
2022-11-18T14:52:04.623Z,-1.21
2022-11-18T14:57:17.165Z,-1.21
2022-11-18T15:02:23.036Z,-1.16
2022-11-18T15:07:30.218Z,-1.19
2022-11-18T15:12:37.592Z,-1.25
2022-11-18T15:17:43.903Z,-1.42
2022-11-18T15:22:49.816Z,-1.57
2022-11-18T15:27:55.402Z,-1.67
2022-11-18T15:33:01.025Z,-1.78
2022-11-18T15:38:06.797Z,-1.89
2022-11-18T15:43:12.462Z,-1.91
2022-11-18T15:48:18.244Z,-1.90
2022-11-18T15:53:23.945Z,-1.96
2022-11-18T15:58:34.534Z,-2.05
2022-11-18T16:03:41.883Z,-2.16
2022-11-18T16:08:47.844Z,-2.24
2022-11-18T16:13:53.568Z,-2.31
2022-11-18T16:19:01.308Z,-2.39
2022-11-18T16:24:10.738Z,-2.47
2022-11-18T16:29:18.552Z,-2.48
2022-11-18T16:34:27.121Z,-2.50
2022-11-18T16:39:32.949Z,-2.49
2022-11-18T16:44:38.840Z,-2.50
2022-11-18T16:49:44.932Z,-2.51
2022-11-18T16:54:51.272Z,-2.51
2022-11-18T16:59:57.073Z,-2.49
2022-11-18T17:05:02.972Z,-2.50
2022-11-18T17:10:20.219Z,-2.51
2022-11-18T17:15:25.992Z,-2.54
2022-11-18T17:20:31.796Z,-2.52
2022-11-18T17:25:39.851Z,-2.51
2022-11-18T17:30:49.910Z,-2.53
2022-11-18T17:36:03.867Z,-2.53
2022-11-18T17:41:31.372Z,-2.56
2022-11-18T17:46:38.419Z,-2.52
2022-11-18T17:51:46.209Z,-2.46
2022-11-18T17:56:52.566Z,-2.50
2022-11-18T18:01:59.909Z,-2.55
2022-11-18T18:07:06.605Z,-2.53
2022-11-18T18:12:30.881Z,-2.54
2022-11-18T18:17:37.268Z,-2.54
2022-11-18T18:22:43.022Z,-2.58
2022-11-18T18:27:49.000Z,-2.57
2022-11-18T18:32:54.648Z,-2.56
2022-11-18T18:38:01.385Z,-2.60
2022-11-18T18:43:06.983Z,-2.66
2022-11-18T18:48:12.632Z,-2.69
2022-11-18T18:53:18.581Z,-2.63
2022-11-18T18:58:24.185Z,-2.59
2022-11-18T19:03:30.043Z,-2.62
2022-11-18T19:08:35.776Z,-2.64
2022-11-18T19:13:41.769Z,-2.67
2022-11-18T19:18:47.833Z,-2.64
2022-11-18T19:23:55.405Z,-2.67
2022-11-18T19:29:01.377Z,-2.74
2022-11-18T19:34:07.210Z,-2.83
2022-11-18T19:39:13.077Z,-2.87
2022-11-18T19:44:19.088Z,-2.87
2022-11-18T19:49:24.750Z,-2.87
2022-11-18T19:54:30.787Z,-2.90
2022-11-18T19:59:36.438Z,-2.91
2022-11-18T20:05:02.015Z,-2.89
2022-11-18T20:10:09.972Z,-2.84
2022-11-18T20:15:15.817Z,-2.79
2022-11-18T20:20:22.096Z,-2.80
2022-11-18T20:25:27.980Z,-2.82
2022-11-18T20:30:33.701Z,-2.85
2022-11-18T20:35:39.313Z,-2.93
2022-11-18T20:40:45.195Z,-2.92
2022-11-18T20:45:57.729Z,-2.91
2022-11-18T20:51:06.613Z,-2.93
2022-11-18T20:56:14.140Z,-2.96
2022-11-18T21:01:21.901Z,-3.05
2022-11-18T21:06:29.526Z,-3.10
2022-11-18T21:11:36.942Z,-3.11
2022-11-18T21:16:43.393Z,-3.12
2022-11-18T21:21:50.962Z,-3.16
2022-11-18T21:26:57.949Z,-3.22
2022-11-18T21:32:03.911Z,-3.26
2022-11-18T21:37:09.668Z,-3.24
2022-11-18T21:42:15.274Z,-3.22
2022-11-18T21:47:20.892Z,-3.26
2022-11-18T21:52:26.816Z,-3.32
2022-11-18T21:57:32.501Z,-3.34
2022-11-18T22:02:38.639Z,-3.33
2022-11-18T22:07:44.257Z,-3.29
2022-11-18T22:12:51.564Z,-3.18
2022-11-18T22:17:58.113Z,-3.14
2022-11-18T22:23:05.045Z,-3.15
2022-11-18T22:28:11.077Z,-3.11
2022-11-18T22:33:16.853Z,-3.11
2022-11-18T22:38:22.480Z,-3.16
2022-11-18T22:43:28.969Z,-3.09
2022-11-18T22:48:35.296Z,-3.05
2022-11-18T22:53:41.049Z,-3.08
2022-11-18T22:58:46.892Z,-3.14
2022-11-18T23:03:54.124Z,-3.24
2022-11-18T23:08:59.920Z,-3.29
2022-11-18T23:14:07.947Z,-3.30
2022-11-18T23:19:15.520Z,-3.30
2022-11-18T23:24:21.233Z,-3.29
2022-11-18T23:29:26.893Z,-3.31
2022-11-18T23:34:33.080Z,-3.36
2022-11-18T23:39:39.138Z,-3.35
2022-11-18T23:44:50.087Z,-3.25
2022-11-18T23:49:55.793Z,-3.23
2022-11-18T23:55:01.624Z,-3.25
